sensor_id;sensor_type;location;lat;lon;timestamp;temperature;humidity
666;DHT22;315;48.738;9.126;2023-03-01T00:01:07;-0.60;99.90
666;DHT22;315;48.738;9.126;2023-03-01T00:03:33;-0.60;99.90
666;DHT22;315;48.738;9.126;2023-03-01T00:06:00;-0.60;99.90
666;DHT22;315;48.738;9.126;2023-03-01T00:08:26;-0.60;99.90
666;DHT22;315;48.738;9.126;2023-03-01T00:11:04;-0.60;99.90
666;DHT22;315;48.738;9.126;2023-03-01T00:13:30;-0.70;99.90
666;DHT22;315;48.738;9.126;2023-03-01T00:15:55;-0.70;99.90
666;DHT22;315;48.738;9.126;2023-03-01T00:18:21;-0.70;99.90
666;DHT22;315;48.738;9.126;2023-03-01T00:20:54;-0.70;99.90
666;DHT22;315;48.738;9.126;2023-03-01T00:23:21;-0.70;99.90
666;DHT22;315;48.738;9.126;2023-03-01T00:25:47;-0.80;99.90
666;DHT22;315;48.738;9.126;2023-03-01T00:28:13;-0.80;99.90
666;DHT22;315;48.738;9.126;2023-03-01T00:30:38;-0.90;99.90
666;DHT22;315;48.738;9.126;2023-03-01T00:33:04;-0.90;99.90
666;DHT22;315;48.738;9.126;2023-03-01T00:35:29;-0.90;99.90
666;DHT22;315;48.738;9.126;2023-03-01T00:37:58;-0.90;99.90
666;DHT22;315;48.738;9.126;2023-03-01T00:40:25;-0.90;99.90
666;DHT22;315;48.738;9.126;2023-03-01T00:42:51;-0.90;99.90
666;DHT22;315;48.738;9.126;2023-03-01T00:45:16;-0.90;99.90
666;DHT22;315;48.738;9.126;2023-03-01T00:47:42;-0.90;99.90
666;DHT22;315;48.738;9.126;2023-03-01T00:50:09;-0.90;99.90
666;DHT22;315;48.738;9.126;2023-03-01T00:52:35;-0.90;99.90
666;DHT22;315;48.738;9.126;2023-03-01T00:55:01;-1.00;99.90
666;DHT22;315;48.738;9.126;2023-03-01T00:57:26;-1.00;99.90
666;DHT22;315;48.738;9.126;2023-03-01T00:59:52;-1.00;99.90
666;DHT22;315;48.738;9.126;2023-03-01T01:02:18;-1.10;99.90
666;DHT22;315;48.738;9.126;2023-03-01T01:04:44;-1.10;99.90
666;DHT22;315;48.738;9.126;2023-03-01T01:07:10;-1.10;99.90
666;DHT22;315;48.738;9.126;2023-03-01T01:09:36;-1.10;99.90
666;DHT22;315;48.738;9.126;2023-03-01T01:12:02;-1.10;99.90
666;DHT22;315;48.738;9.126;2023-03-01T01:14:27;-1.10;99.90
666;DHT22;315;48.738;9.126;2023-03-01T01:16:53;-1.10;99.90
666;DHT22;315;48.738;9.126;2023-03-01T01:19:19;-1.20;99.90
666;DHT22;315;48.738;9.126;2023-03-01T01:21:44;-1.20;99.90
666;DHT22;315;48.738;9.126;2023-03-01T01:24:11;-1.20;99.90
666;DHT22;315;48.738;9.126;2023-03-01T01:26:37;-1.30;99.90
666;DHT22;315;48.738;9.126;2023-03-01T01:29:04;-1.30;99.90
666;DHT22;315;48.738;9.126;2023-03-01T01:31:31;-1.40;99.90
666;DHT22;315;48.738;9.126;2023-03-01T01:33:58;-1.40;99.90
666;DHT22;315;48.738;9.126;2023-03-01T01:36:24;-1.40;99.90
666;DHT22;315;48.738;9.126;2023-03-01T01:38:49;-1.40;99.90
666;DHT22;315;48.738;9.126;2023-03-01T01:41:16;-1.40;99.90
666;DHT22;315;48.738;9.126;2023-03-01T01:43:48;-1.50;99.90
666;DHT22;315;48.738;9.126;2023-03-01T01:48:55;-1.40;99.90
666;DHT22;315;48.738;9.126;2023-03-01T01:51:27;-1.40;99.90
666;DHT22;315;48.738;9.126;2023-03-01T01:53:57;-1.40;99.90
666;DHT22;315;48.738;9.126;2023-03-01T01:56:25;-1.40;99.90
666;DHT22;315;48.738;9.126;2023-03-01T01:58:51;-1.30;99.90
666;DHT22;315;48.738;9.126;2023-03-01T02:01:17;-1.30;99.90
666;DHT22;315;48.738;9.126;2023-03-01T02:03:44;-1.10;99.90
666;DHT22;315;48.738;9.126;2023-03-01T02:06:31;-1.00;99.90
666;DHT22;315;48.738;9.126;2023-03-01T02:09:03;-0.90;99.90
666;DHT22;315;48.738;9.126;2023-03-01T02:11:31;-0.70;99.90
666;DHT22;315;48.738;9.126;2023-03-01T02:13:57;-0.60;99.90
666;DHT22;315;48.738;9.126;2023-03-01T02:16:23;-0.50;99.90
666;DHT22;315;48.738;9.126;2023-03-01T02:18:50;-0.40;99.90
666;DHT22;315;48.738;9.126;2023-03-01T02:23:47;-0.20;99.90
666;DHT22;315;48.738;9.126;2023-03-01T02:26:25;-0.30;99.90
666;DHT22;315;48.738;9.126;2023-03-01T02:28:52;-0.40;99.90
666;DHT22;315;48.738;9.126;2023-03-01T02:31:19;-0.40;99.90
666;DHT22;315;48.738;9.126;2023-03-01T02:34:05;-0.40;99.90
666;DHT22;315;48.738;9.126;2023-03-01T02:36:36;-0.50;99.90
666;DHT22;315;48.738;9.126;2023-03-01T02:39:05;-0.50;99.90
666;DHT22;315;48.738;9.126;2023-03-01T02:41:35;-0.30;99.90
666;DHT22;315;48.738;9.126;2023-03-01T02:44:03;-0.20;99.90
666;DHT22;315;48.738;9.126;2023-03-01T02:46:29;-0.10;99.90
666;DHT22;315;48.738;9.126;2023-03-01T02:48:58;-0.10;99.90
666;DHT22;315;48.738;9.126;2023-03-01T02:54:13;-0.10;99.90
666;DHT22;315;48.738;9.126;2023-03-01T02:56:41;0.00;99.90
666;DHT22;315;48.738;9.126;2023-03-01T02:59:08;0.00;99.90
666;DHT22;315;48.738;9.126;2023-03-01T03:01:34;0.10;99.90
666;DHT22;315;48.738;9.126;2023-03-01T03:04:08;0.10;99.90
666;DHT22;315;48.738;9.126;2023-03-01T03:06:35;0.10;99.90
666;DHT22;315;48.738;9.126;2023-03-01T03:09:01;0.10;99.90
666;DHT22;315;48.738;9.126;2023-03-01T03:11:26;0.10;99.90
666;DHT22;315;48.738;9.126;2023-03-01T03:13:52;0.20;99.90
666;DHT22;315;48.738;9.126;2023-03-01T03:16:18;0.20;99.90
666;DHT22;315;48.738;9.126;2023-03-01T03:18:44;0.30;99.90
666;DHT22;315;48.738;9.126;2023-03-01T03:21:11;0.30;99.90
666;DHT22;315;48.738;9.126;2023-03-01T03:23:37;0.30;99.90
666;DHT22;315;48.738;9.126;2023-03-01T03:26:04;0.30;99.90
666;DHT22;315;48.738;9.126;2023-03-01T03:28:30;0.40;99.90
666;DHT22;315;48.738;9.126;2023-03-01T03:30:56;0.40;99.90
666;DHT22;315;48.738;9.126;2023-03-01T03:33:22;0.30;99.90
666;DHT22;315;48.738;9.126;2023-03-01T03:35:49;0.30;99.90
666;DHT22;315;48.738;9.126;2023-03-01T03:38:17;0.30;99.90
666;DHT22;315;48.738;9.126;2023-03-01T03:41:05;0.40;99.90
666;DHT22;315;48.738;9.126;2023-03-01T03:43:34;0.40;99.90
666;DHT22;315;48.738;9.126;2023-03-01T03:46:00;0.50;99.90
666;DHT22;315;48.738;9.126;2023-03-01T03:48:26;0.50;99.90
666;DHT22;315;48.738;9.126;2023-03-01T03:50:54;0.50;99.90
666;DHT22;315;48.738;9.126;2023-03-01T03:53:21;0.40;99.90
666;DHT22;315;48.738;9.126;2023-03-01T03:55:47;0.50;99.90
666;DHT22;315;48.738;9.126;2023-03-01T03:58:15;0.50;99.90
666;DHT22;315;48.738;9.126;2023-03-01T04:00:43;0.50;99.90
666;DHT22;315;48.738;9.126;2023-03-01T04:03:10;0.50;99.90
666;DHT22;315;48.738;9.126;2023-03-01T04:05:37;0.60;99.90
666;DHT22;315;48.738;9.126;2023-03-01T04:08:03;0.60;99.90
666;DHT22;315;48.738;9.126;2023-03-01T04:10:34;0.60;99.90
666;DHT22;315;48.738;9.126;2023-03-01T04:13:01;0.70;99.90
666;DHT22;315;48.738;9.126;2023-03-01T04:15:27;0.60;99.90
666;DHT22;315;48.738;9.126;2023-03-01T04:17:54;0.60;99.90
666;DHT22;315;48.738;9.126;2023-03-01T04:20:23;0.70;99.90
666;DHT22;315;48.738;9.126;2023-03-01T04:23:03;0.60;99.90
666;DHT22;315;48.738;9.126;2023-03-01T04:25:46;0.70;99.90
666;DHT22;315;48.738;9.126;2023-03-01T04:28:12;0.70;99.90
666;DHT22;315;48.738;9.126;2023-03-01T04:30:38;0.80;99.90
666;DHT22;315;48.738;9.126;2023-03-01T04:33:08;0.70;99.90
666;DHT22;315;48.738;9.126;2023-03-01T04:35:35;0.70;99.90
666;DHT22;315;48.738;9.126;2023-03-01T04:38:01;0.60;99.90
666;DHT22;315;48.738;9.126;2023-03-01T04:40:27;0.70;99.90
666;DHT22;315;48.738;9.126;2023-03-01T04:42:53;0.60;99.90
666;DHT22;315;48.738;9.126;2023-03-01T04:45:19;0.70;99.90
666;DHT22;315;48.738;9.126;2023-03-01T04:47:45;0.70;99.90
666;DHT22;315;48.738;9.126;2023-03-01T04:50:16;0.80;99.90
666;DHT22;315;48.738;9.126;2023-03-01T04:52:43;0.80;99.90
666;DHT22;315;48.738;9.126;2023-03-01T04:55:10;0.70;99.90
666;DHT22;315;48.738;9.126;2023-03-01T04:57:35;0.80;99.90
666;DHT22;315;48.738;9.126;2023-03-01T05:00:01;0.70;99.90
666;DHT22;315;48.738;9.126;2023-03-01T05:02:26;0.70;99.90
666;DHT22;315;48.738;9.126;2023-03-01T05:04:52;0.70;99.90
666;DHT22;315;48.738;9.126;2023-03-01T05:07:17;0.70;99.90
666;DHT22;315;48.738;9.126;2023-03-01T05:09:48;0.70;99.90
666;DHT22;315;48.738;9.126;2023-03-01T05:12:14;0.70;99.90
666;DHT22;315;48.738;9.126;2023-03-01T05:14:41;0.70;99.90
666;DHT22;315;48.738;9.126;2023-03-01T05:17:07;0.80;99.90
666;DHT22;315;48.738;9.126;2023-03-01T05:19:32;0.80;99.90
666;DHT22;315;48.738;9.126;2023-03-01T05:21:58;0.80;99.90
666;DHT22;315;48.738;9.126;2023-03-01T05:24:27;0.80;99.90
666;DHT22;315;48.738;9.126;2023-03-01T05:26:53;0.80;99.90
666;DHT22;315;48.738;9.126;2023-03-01T05:29:22;0.90;99.90
666;DHT22;315;48.738;9.126;2023-03-01T05:32:02;0.90;99.90
666;DHT22;315;48.738;9.126;2023-03-01T05:34:30;0.90;99.90
666;DHT22;315;48.738;9.126;2023-03-01T05:36:56;0.90;99.90
666;DHT22;315;48.738;9.126;2023-03-01T05:39:24;0.80;99.90
666;DHT22;315;48.738;9.126;2023-03-01T05:41:55;0.90;99.90
666;DHT22;315;48.738;9.126;2023-03-01T05:44:21;0.90;99.90
666;DHT22;315;48.738;9.126;2023-03-01T05:46:47;0.90;99.90
666;DHT22;315;48.738;9.126;2023-03-01T05:49:13;1.00;99.90
666;DHT22;315;48.738;9.126;2023-03-01T05:51:42;1.10;99.90
666;DHT22;315;48.738;9.126;2023-03-01T05:54:09;1.00;99.90
666;DHT22;315;48.738;9.126;2023-03-01T05:56:35;1.10;99.90
666;DHT22;315;48.738;9.126;2023-03-01T05:59:02;1.00;99.90
666;DHT22;315;48.738;9.126;2023-03-01T06:01:28;1.00;99.90
666;DHT22;315;48.738;9.126;2023-03-01T06:03:54;1.00;99.90
666;DHT22;315;48.738;9.126;2023-03-01T06:06:21;1.00;99.90
666;DHT22;315;48.738;9.126;2023-03-01T06:08:46;0.90;99.90
666;DHT22;315;48.738;9.126;2023-03-01T06:11:12;1.00;99.90
666;DHT22;315;48.738;9.126;2023-03-01T06:13:37;1.10;99.90
666;DHT22;315;48.738;9.126;2023-03-01T06:16:06;1.10;99.90
666;DHT22;315;48.738;9.126;2023-03-01T06:18:32;1.10;99.90
666;DHT22;315;48.738;9.126;2023-03-01T06:20:57;1.10;99.90
666;DHT22;315;48.738;9.126;2023-03-01T06:23:23;1.10;99.90
666;DHT22;315;48.738;9.126;2023-03-01T06:25:49;1.10;99.90
666;DHT22;315;48.738;9.126;2023-03-01T06:28:15;1.20;99.90
666;DHT22;315;48.738;9.126;2023-03-01T06:30:40;1.20;99.90
666;DHT22;315;48.738;9.126;2023-03-01T06:33:06;1.20;99.90
666;DHT22;315;48.738;9.126;2023-03-01T06:35:32;1.20;99.90
666;DHT22;315;48.738;9.126;2023-03-01T06:37:59;1.30;99.90
666;DHT22;315;48.738;9.126;2023-03-01T06:40:24;1.20;99.90
666;DHT22;315;48.738;9.126;2023-03-01T06:42:51;1.20;99.90
666;DHT22;315;48.738;9.126;2023-03-01T06:45:18;1.20;99.90
666;DHT22;315;48.738;9.126;2023-03-01T06:47:44;1.20;99.90
666;DHT22;315;48.738;9.126;2023-03-01T06:50:10;1.40;99.90
666;DHT22;315;48.738;9.126;2023-03-01T06:52:37;1.50;99.90
666;DHT22;315;48.738;9.126;2023-03-01T06:55:04;1.70;99.90
666;DHT22;315;48.738;9.126;2023-03-01T06:57:29;1.90;99.90
666;DHT22;315;48.738;9.126;2023-03-01T06:59:55;1.90;99.90
666;DHT22;315;48.738;9.126;2023-03-01T07:02:21;2.00;99.90
666;DHT22;315;48.738;9.126;2023-03-01T07:04:47;2.20;99.90
666;DHT22;315;48.738;9.126;2023-03-01T07:07:13;2.40;99.90
666;DHT22;315;48.738;9.126;2023-03-01T07:09:39;2.70;99.90
666;DHT22;315;48.738;9.126;2023-03-01T07:12:05;2.80;99.90
666;DHT22;315;48.738;9.126;2023-03-01T07:14:30;2.90;99.90
666;DHT22;315;48.738;9.126;2023-03-01T07:16:56;3.00;99.90
666;DHT22;315;48.738;9.126;2023-03-01T07:19:22;3.10;99.90
666;DHT22;315;48.738;9.126;2023-03-01T07:21:48;3.10;99.90
666;DHT22;315;48.738;9.126;2023-03-01T07:24:13;3.20;99.90
666;DHT22;315;48.738;9.126;2023-03-01T07:26:39;3.40;99.90
666;DHT22;315;48.738;9.126;2023-03-01T07:29:06;3.50;99.90
666;DHT22;315;48.738;9.126;2023-03-01T07:31:32;3.50;99.90
666;DHT22;315;48.738;9.126;2023-03-01T07:33:58;3.60;99.90
666;DHT22;315;48.738;9.126;2023-03-01T07:36:24;3.90;99.90
666;DHT22;315;48.738;9.126;2023-03-01T07:38:50;4.10;99.90
666;DHT22;315;48.738;9.126;2023-03-01T07:41:16;4.20;99.90
666;DHT22;315;48.738;9.126;2023-03-01T07:43:42;4.40;99.90
666;DHT22;315;48.738;9.126;2023-03-01T07:46:07;4.50;99.90
666;DHT22;315;48.738;9.126;2023-03-01T07:48:33;4.60;99.90
666;DHT22;315;48.738;9.126;2023-03-01T07:51:03;4.80;99.90
666;DHT22;315;48.738;9.126;2023-03-01T07:53:30;5.00;99.90
666;DHT22;315;48.738;9.126;2023-03-01T07:56:03;5.10;99.90
666;DHT22;315;48.738;9.126;2023-03-01T07:58:29;5.40;99.90
666;DHT22;315;48.738;9.126;2023-03-01T08:00:55;5.60;99.90
666;DHT22;315;48.738;9.126;2023-03-01T08:03:20;5.80;99.90
666;DHT22;315;48.738;9.126;2023-03-01T08:05:46;6.10;99.90
666;DHT22;315;48.738;9.126;2023-03-01T08:08:11;6.20;99.90
666;DHT22;315;48.738;9.126;2023-03-01T08:10:37;6.20;99.90
666;DHT22;315;48.738;9.126;2023-03-01T08:13:02;6.30;99.90
666;DHT22;315;48.738;9.126;2023-03-01T08:15:28;6.60;99.90
666;DHT22;315;48.738;9.126;2023-03-01T08:17:53;6.60;99.90
666;DHT22;315;48.738;9.126;2023-03-01T08:20:19;6.50;99.90
666;DHT22;315;48.738;9.126;2023-03-01T08:22:45;6.70;99.90
666;DHT22;315;48.738;9.126;2023-03-01T08:25:10;7.00;99.90
666;DHT22;315;48.738;9.126;2023-03-01T08:27:36;7.30;99.90
666;DHT22;315;48.738;9.126;2023-03-01T08:30:01;7.90;99.90
666;DHT22;315;48.738;9.126;2023-03-01T08:32:27;8.20;99.00
666;DHT22;315;48.738;9.126;2023-03-01T08:34:52;8.20;98.30
666;DHT22;315;48.738;9.126;2023-03-01T08:37:18;8.40;97.50
666;DHT22;315;48.738;9.126;2023-03-01T08:39:43;8.50;96.50
666;DHT22;315;48.738;9.126;2023-03-01T08:42:09;8.40;96.10
666;DHT22;315;48.738;9.126;2023-03-01T08:44:34;8.80;96.10
666;DHT22;315;48.738;9.126;2023-03-01T08:47:00;8.70;95.20
666;DHT22;315;48.738;9.126;2023-03-01T08:49:27;8.80;95.40
666;DHT22;315;48.738;9.126;2023-03-01T08:51:53;9.20;94.40
666;DHT22;315;48.738;9.126;2023-03-01T08:54:19;9.60;93.30
666;DHT22;315;48.738;9.126;2023-03-01T08:56:45;10.60;91.90
666;DHT22;315;48.738;9.126;2023-03-01T08:59:12;10.70;89.30
666;DHT22;315;48.738;9.126;2023-03-01T09:01:38;10.70;87.90
666;DHT22;315;48.738;9.126;2023-03-01T09:04:05;11.00;86.40
666;DHT22;315;48.738;9.126;2023-03-01T09:06:32;11.60;83.70
666;DHT22;315;48.738;9.126;2023-03-01T09:08:59;12.10;80.00
666;DHT22;315;48.738;9.126;2023-03-01T09:11:24;12.20;78.30
666;DHT22;315;48.738;9.126;2023-03-01T09:13:50;12.50;76.90
666;DHT22;315;48.738;9.126;2023-03-01T09:16:19;12.70;74.10
666;DHT22;315;48.738;9.126;2023-03-01T09:18:48;13.00;72.30
666;DHT22;315;48.738;9.126;2023-03-01T09:21:15;12.20;73.50
666;DHT22;315;48.738;9.126;2023-03-01T09:23:46;12.30;73.30
666;DHT22;315;48.738;9.126;2023-03-01T09:26:14;12.30;72.90
666;DHT22;315;48.738;9.126;2023-03-01T09:28:42;12.90;72.00
666;DHT22;315;48.738;9.126;2023-03-01T09:31:07;13.30;68.80
666;DHT22;315;48.738;9.126;2023-03-01T09:33:33;13.20;67.90
666;DHT22;315;48.738;9.126;2023-03-01T09:36:03;13.60;68.30
666;DHT22;315;48.738;9.126;2023-03-01T09:38:30;14.30;65.30
666;DHT22;315;48.738;9.126;2023-03-01T09:40:56;13.80;64.40
666;DHT22;315;48.738;9.126;2023-03-01T09:43:31;13.50;64.20
666;DHT22;315;48.738;9.126;2023-03-01T09:46:04;13.80;64.20
666;DHT22;315;48.738;9.126;2023-03-01T09:48:37;13.70;63.60
666;DHT22;315;48.738;9.126;2023-03-01T09:51:09;14.60;62.60
666;DHT22;315;48.738;9.126;2023-03-01T09:53:38;14.20;60.30
666;DHT22;315;48.738;9.126;2023-03-01T09:56:28;14.40;59.80
666;DHT22;315;48.738;9.126;2023-03-01T10:01:46;14.60;58.70
666;DHT22;315;48.738;9.126;2023-03-01T10:09:38;16.90;57.40
666;DHT22;315;48.738;9.126;2023-03-01T10:12:27;16.90;55.30
666;DHT22;315;48.738;9.126;2023-03-01T10:15:17;16.20;55.50
666;DHT22;315;48.738;9.126;2023-03-01T10:17:56;16.60;54.60
666;DHT22;315;48.738;9.126;2023-03-01T10:20:33;16.70;54.00
666;DHT22;315;48.738;9.126;2023-03-01T10:23:05;17.10;52.90
666;DHT22;315;48.738;9.126;2023-03-01T10:28:31;16.30;53.30
666;DHT22;315;48.738;9.126;2023-03-01T10:31:03;16.50;52.60
666;DHT22;315;48.738;9.126;2023-03-01T10:33:37;17.50;52.40
666;DHT22;315;48.738;9.126;2023-03-01T10:36:05;18.40;50.70
666;DHT22;315;48.738;9.126;2023-03-01T10:38:53;18.90;49.70
666;DHT22;315;48.738;9.126;2023-03-01T10:41:23;19.20;46.80
666;DHT22;315;48.738;9.126;2023-03-01T10:43:57;19.10;46.70
666;DHT22;315;48.738;9.126;2023-03-01T10:46:36;19.70;45.80
666;DHT22;315;48.738;9.126;2023-03-01T10:51:32;19.80;45.10
666;DHT22;315;48.738;9.126;2023-03-01T10:53:58;19.20;44.80
666;DHT22;315;48.738;9.126;2023-03-01T10:56:23;19.20;44.70
666;DHT22;315;48.738;9.126;2023-03-01T10:59:02;19.40;44.40
666;DHT22;315;48.738;9.126;2023-03-01T11:01:30;19.90;44.30
666;DHT22;315;48.738;9.126;2023-03-01T11:04:12;20.20;43.30
666;DHT22;315;48.738;9.126;2023-03-01T11:06:41;21.50;42.90
666;DHT22;315;48.738;9.126;2023-03-01T11:09:21;21.60;42.00
666;DHT22;315;48.738;9.126;2023-03-01T11:11:53;21.90;41.90
666;DHT22;315;48.738;9.126;2023-03-01T11:14:24;21.70;40.90
666;DHT22;315;48.738;9.126;2023-03-01T11:22:49;22.10;39.20
666;DHT22;315;48.738;9.126;2023-03-01T11:25:18;22.10;39.10
666;DHT22;315;48.738;9.126;2023-03-01T11:27:45;21.80;39.60
666;DHT22;315;48.738;9.126;2023-03-01T11:30:27;21.20;39.40
666;DHT22;315;48.738;9.126;2023-03-01T11:35:49;20.10;40.30
666;DHT22;315;48.738;9.126;2023-03-01T11:38:26;19.30;40.50
666;DHT22;315;48.738;9.126;2023-03-01T11:40:59;19.20;41.30
666;DHT22;315;48.738;9.126;2023-03-01T11:51:38;18.30;41.50
666;DHT22;315;48.738;9.126;2023-03-01T11:54:13;18.50;41.80
666;DHT22;315;48.738;9.126;2023-03-01T11:56:55;20.30;40.50
666;DHT22;315;48.738;9.126;2023-03-01T12:08:17;20.90;39.00
666;DHT22;315;48.738;9.126;2023-03-01T12:13:23;21.50;38.20
666;DHT22;315;48.738;9.126;2023-03-01T12:21:30;21.30;39.00
666;DHT22;315;48.738;9.126;2023-03-01T12:27:05;22.40;38.80
666;DHT22;315;48.738;9.126;2023-03-01T12:29:47;22.50;39.30
666;DHT22;315;48.738;9.126;2023-03-01T12:32:47;23.70;38.70
666;DHT22;315;48.738;9.126;2023-03-01T12:35:32;23.70;38.20
666;DHT22;315;48.738;9.126;2023-03-01T12:40:46;23.20;39.00
666;DHT22;315;48.738;9.126;2023-03-01T12:43:36;23.00;38.60
666;DHT22;315;48.738;9.126;2023-03-01T12:51:28;22.40;40.40
666;DHT22;315;48.738;9.126;2023-03-01T12:53:56;23.10;38.60
666;DHT22;315;48.738;9.126;2023-03-01T12:56:25;23.50;38.50
666;DHT22;315;48.738;9.126;2023-03-01T13:02:23;23.40;38.50
666;DHT22;315;48.738;9.126;2023-03-01T13:07:44;23.30;38.00
666;DHT22;315;48.738;9.126;2023-03-01T13:10:21;21.50;39.20
666;DHT22;315;48.738;9.126;2023-03-01T13:13:01;22.30;39.00
666;DHT22;315;48.738;9.126;2023-03-01T13:15:32;21.80;39.40
666;DHT22;315;48.738;9.126;2023-03-01T13:28:53;22.30;39.20
666;DHT22;315;48.738;9.126;2023-03-01T13:36:45;22.30;39.00
666;DHT22;315;48.738;9.126;2023-03-01T13:39:02;22.80;38.00
666;DHT22;315;48.738;9.126;2023-03-01T13:46:51;21.30;39.80
666;DHT22;315;48.738;9.126;2023-03-01T13:49:20;20.10;40.00
666;DHT22;315;48.738;9.126;2023-03-01T13:51:47;20.40;40.50
666;DHT22;315;48.738;9.126;2023-03-01T13:54:14;20.30;40.30
666;DHT22;315;48.738;9.126;2023-03-01T13:56:40;21.20;39.90
666;DHT22;315;48.738;9.126;2023-03-01T13:59:14;22.50;39.10
666;DHT22;315;48.738;9.126;2023-03-01T14:01:40;22.10;38.30
666;DHT22;315;48.738;9.126;2023-03-01T14:04:22;20.80;39.10
666;DHT22;315;48.738;9.126;2023-03-01T14:06:48;20.00;40.50
666;DHT22;315;48.738;9.126;2023-03-01T14:09:22;19.00;41.30
666;DHT22;315;48.738;9.126;2023-03-01T14:14:50;16.60;44.50
666;DHT22;315;48.738;9.126;2023-03-01T14:19:47;14.50;45.50
666;DHT22;315;48.738;9.126;2023-03-01T14:24:58;12.80;44.80
666;DHT22;315;48.738;9.126;2023-03-01T14:27:37;12.20;46.20
666;DHT22;315;48.738;9.126;2023-03-01T14:30:14;11.50;47.60
666;DHT22;315;48.738;9.126;2023-03-01T14:32:41;10.70;49.20
666;DHT22;315;48.738;9.126;2023-03-01T14:35:21;10.50;50.20
666;DHT22;315;48.738;9.126;2023-03-01T14:37:46;10.40;51.00
666;DHT22;315;48.738;9.126;2023-03-01T14:40:22;10.30;51.50
666;DHT22;315;48.738;9.126;2023-03-01T14:42:48;10.10;51.90
666;DHT22;315;48.738;9.126;2023-03-01T14:45:14;10.00;52.90
666;DHT22;315;48.738;9.126;2023-03-01T14:47:40;10.00;53.60
666;DHT22;315;48.738;9.126;2023-03-01T14:52:47;9.70;55.30
666;DHT22;315;48.738;9.126;2023-03-01T14:55:17;9.50;55.90
666;DHT22;315;48.738;9.126;2023-03-01T14:57:45;9.50;56.70
666;DHT22;315;48.738;9.126;2023-03-01T15:00:19;9.50;57.40
666;DHT22;315;48.738;9.126;2023-03-01T15:02:47;9.40;57.60
666;DHT22;315;48.738;9.126;2023-03-01T15:05:14;9.40;58.50
666;DHT22;315;48.738;9.126;2023-03-01T15:07:42;9.50;59.00
666;DHT22;315;48.738;9.126;2023-03-01T15:10:26;9.50;59.30
666;DHT22;315;48.738;9.126;2023-03-01T15:12:52;9.40;61.00
666;DHT22;315;48.738;9.126;2023-03-01T15:15:38;9.40;60.30
666;DHT22;315;48.738;9.126;2023-03-01T15:18:15;9.30;60.50
666;DHT22;315;48.738;9.126;2023-03-01T15:20:42;9.10;61.80
666;DHT22;315;48.738;9.126;2023-03-01T15:23:21;8.80;63.60
666;DHT22;315;48.738;9.126;2023-03-01T15:25:48;8.80;65.20
666;DHT22;315;48.738;9.126;2023-03-01T15:28:23;8.60;66.80
666;DHT22;315;48.738;9.126;2023-03-01T15:31:02;8.60;67.90
666;DHT22;315;48.738;9.126;2023-03-01T15:36:03;8.40;69.80
666;DHT22;315;48.738;9.126;2023-03-01T15:38:36;8.30;71.90
666;DHT22;315;48.738;9.126;2023-03-01T15:43:48;8.20;73.80
666;DHT22;315;48.738;9.126;2023-03-01T15:46:35;8.20;74.60
666;DHT22;315;48.738;9.126;2023-03-01T15:49:05;8.20;75.50
666;DHT22;315;48.738;9.126;2023-03-01T15:51:35;8.10;75.10
666;DHT22;315;48.738;9.126;2023-03-01T15:54:17;8.10;76.90
666;DHT22;315;48.738;9.126;2023-03-01T15:56:43;8.00;77.70
666;DHT22;315;48.738;9.126;2023-03-01T15:59:11;7.90;78.20
666;DHT22;315;48.738;9.126;2023-03-01T16:01:40;7.90;79.60
666;DHT22;315;48.738;9.126;2023-03-01T16:04:05;7.90;80.30
666;DHT22;315;48.738;9.126;2023-03-01T16:06:31;7.90;79.30
666;DHT22;315;48.738;9.126;2023-03-01T16:08:57;7.80;80.20
666;DHT22;315;48.738;9.126;2023-03-01T16:11:22;7.60;80.00
666;DHT22;315;48.738;9.126;2023-03-01T16:13:48;7.60;80.40
666;DHT22;315;48.738;9.126;2023-03-01T16:16:15;7.50;80.80
666;DHT22;315;48.738;9.126;2023-03-01T16:18:46;7.40;81.50
666;DHT22;315;48.738;9.126;2023-03-01T16:21:29;7.40;81.80
666;DHT22;315;48.738;9.126;2023-03-01T16:23:55;7.40;82.00
666;DHT22;315;48.738;9.126;2023-03-01T16:26:21;7.30;81.90
666;DHT22;315;48.738;9.126;2023-03-01T16:28:47;7.30;83.00
666;DHT22;315;48.738;9.126;2023-03-01T16:31:17;7.20;82.90
666;DHT22;315;48.738;9.126;2023-03-01T16:33:43;7.20;83.70
666;DHT22;315;48.738;9.126;2023-03-01T16:36:15;7.10;84.10
666;DHT22;315;48.738;9.126;2023-03-01T16:38:41;7.10;84.20
666;DHT22;315;48.738;9.126;2023-03-01T16:41:12;7.10;85.70
666;DHT22;315;48.738;9.126;2023-03-01T16:43:37;7.00;85.40
666;DHT22;315;48.738;9.126;2023-03-01T16:46:10;7.00;86.40
666;DHT22;315;48.738;9.126;2023-03-01T16:48:36;7.00;87.30
666;DHT22;315;48.738;9.126;2023-03-01T16:51:01;7.00;88.00
666;DHT22;315;48.738;9.126;2023-03-01T16:53:28;6.90;88.50
666;DHT22;315;48.738;9.126;2023-03-01T16:55:58;6.90;89.50
666;DHT22;315;48.738;9.126;2023-03-01T16:58:24;6.80;90.20
666;DHT22;315;48.738;9.126;2023-03-01T17:00:51;6.80;90.90
666;DHT22;315;48.738;9.126;2023-03-01T17:03:16;6.80;90.80
666;DHT22;315;48.738;9.126;2023-03-01T17:05:42;6.70;90.60
666;DHT22;315;48.738;9.126;2023-03-01T17:08:07;6.60;91.70
666;DHT22;315;48.738;9.126;2023-03-01T17:10:33;6.60;91.40
666;DHT22;315;48.738;9.126;2023-03-01T17:12:58;6.60;91.40
666;DHT22;315;48.738;9.126;2023-03-01T17:15:24;6.50;92.30
666;DHT22;315;48.738;9.126;2023-03-01T17:17:49;6.50;92.80
666;DHT22;315;48.738;9.126;2023-03-01T17:20:16;6.50;93.50
666;DHT22;315;48.738;9.126;2023-03-01T17:22:42;6.40;94.20
666;DHT22;315;48.738;9.126;2023-03-01T17:25:09;6.40;94.10
666;DHT22;315;48.738;9.126;2023-03-01T17:27:36;6.30;94.50
666;DHT22;315;48.738;9.126;2023-03-01T17:30:02;6.30;95.10
666;DHT22;315;48.738;9.126;2023-03-01T17:32:28;6.30;95.50
666;DHT22;315;48.738;9.126;2023-03-01T17:34:54;6.30;96.00
666;DHT22;315;48.738;9.126;2023-03-01T17:37:19;6.20;96.10
666;DHT22;315;48.738;9.126;2023-03-01T17:39:45;6.20;96.30
666;DHT22;315;48.738;9.126;2023-03-01T17:42:10;6.20;96.60
666;DHT22;315;48.738;9.126;2023-03-01T17:44:36;6.20;97.10
666;DHT22;315;48.738;9.126;2023-03-01T17:47:03;6.10;97.00
666;DHT22;315;48.738;9.126;2023-03-01T17:49:29;6.10;97.40
666;DHT22;315;48.738;9.126;2023-03-01T17:51:54;6.10;97.70
666;DHT22;315;48.738;9.126;2023-03-01T17:54:20;6.10;98.30
666;DHT22;315;48.738;9.126;2023-03-01T17:56:45;6.00;98.60
666;DHT22;315;48.738;9.126;2023-03-01T17:59:11;6.00;99.00
666;DHT22;315;48.738;9.126;2023-03-01T18:01:36;5.90;99.30
666;DHT22;315;48.738;9.126;2023-03-01T18:04:06;5.80;99.90
666;DHT22;315;48.738;9.126;2023-03-01T18:06:32;5.80;99.90
666;DHT22;315;48.738;9.126;2023-03-01T18:08:57;5.80;99.90
666;DHT22;315;48.738;9.126;2023-03-01T18:11:24;5.80;99.90
666;DHT22;315;48.738;9.126;2023-03-01T18:13:50;5.70;99.90
666;DHT22;315;48.738;9.126;2023-03-01T18:16:18;5.60;99.90
666;DHT22;315;48.738;9.126;2023-03-01T18:18:44;5.60;99.90
666;DHT22;315;48.738;9.126;2023-03-01T18:21:09;5.50;99.90
666;DHT22;315;48.738;9.126;2023-03-01T18:23:35;5.40;99.90
666;DHT22;315;48.738;9.126;2023-03-01T18:26:04;5.40;99.90
666;DHT22;315;48.738;9.126;2023-03-01T18:28:31;5.40;99.90
666;DHT22;315;48.738;9.126;2023-03-01T18:30:58;5.30;99.90
666;DHT22;315;48.738;9.126;2023-03-01T18:33:24;5.30;99.90
666;DHT22;315;48.738;9.126;2023-03-01T18:35:50;5.20;99.90
666;DHT22;315;48.738;9.126;2023-03-01T18:38:16;5.20;99.90
666;DHT22;315;48.738;9.126;2023-03-01T18:40:42;5.10;99.90
666;DHT22;315;48.738;9.126;2023-03-01T18:43:08;5.00;99.90